Time;durP1;ratioP1;P1;durP2;ratioP2;P2;SDS_P1;SDS_P2;PMS_P1;PMS_P2;Temp;Humidity;BMP_temperature;BMP_pressure;BME280_temperature;BME280_humidity;BME280_pressure;Samples;Min_cycle;Max_cycle;Signal;HPM_P1;HPM_P2
2022/05/12 00:02:53;;;;;;;14.38;8.03;;;;;;;20.42;55.84;99569.98;3423623;83;99085;-86
2022/05/12 00:07:54;;;;;;;13.72;7.97;;;;;;;20.42;55.70;99559.41;3428749;84;98737;-85
2022/05/12 00:12:58;;;;;;;12.75;6.97;;;;;;;20.38;55.79;99554.62;3425251;83;99300;-85
2022/05/12 00:18:04;;;;;;;13.25;7.25;;;;;;;20.35;55.68;99547.15;3416482;85;99152;-85
2022/05/12 00:23:13;;;;;;;16.07;7.60;;;;;;;20.30;55.75;99550.55;3417147;84;98949;-84
2022/05/12 00:28:20;;;;;;;13.55;8.05;;;;;;;20.14;55.97;99522.28;3407070;84;98820;-84
2022/05/12 00:33:25;;;;;;;12.03;7.55;;;;;;;20.25;55.95;99542.78;3417696;84;99021;-85
2022/05/12 00:38:27;;;;;;;11.73;8.13;;;;;;;20.21;55.93;99544.97;3419835;85;98545;-85
2022/05/12 00:43:51;;;;;;;12.60;7.28;;;;;;;20.17;56.05;99538.11;3412705;84;99141;-85
2022/05/12 00:48:56;;;;;;;13.95;8.30;;;;;;;20.14;56.25;99542.45;3415952;84;99633;-84
2022/05/12 00:54:01;;;;;;;14.78;8.33;;;;;;;20.12;56.52;99540.75;3410030;84;98831;-84
2022/05/12 00:59:06;;;;;;;15.20;8.08;;;;;;;20.08;56.49;99545.09;3409166;84;99152;-82
2022/05/12 01:04:07;;;;;;;14.45;8.48;;;;;;;20.02;56.59;99545.52;3416151;84;98716;-85
2022/05/12 01:09:08;;;;;;;13.22;8.20;;;;;;;19.98;56.80;99544.08;3424048;85;98616;-85
2022/05/12 01:14:11;;;;;;;12.20;7.30;;;;;;;19.91;56.99;99547.17;3412750;84;98919;-86
2022/05/12 01:19:17;;;;;;;11.08;7.25;;;;;;;19.85;57.09;99542.83;3416503;84;98892;-83
2022/05/12 01:24:20;;;;;;;12.37;7.62;;;;;;;19.77;57.25;99536.56;3404453;85;98964;-84
2022/05/12 01:29:22;;;;;;;12.28;7.53;;;;;;;19.70;57.43;99541.05;3410640;84;99166;-83
2022/05/12 01:34:23;;;;;;;13.05;7.83;;;;;;;19.62;57.56;99546.13;3411130;84;99155;-84
2022/05/12 01:39:24;;;;;;;11.45;7.20;;;;;;;19.58;57.59;99542.73;3420076;85;34902;-84
2022/05/12 01:44:25;;;;;;;10.40;7.08;;;;;;;19.55;57.73;99539.44;3410048;84;99081;-83
2022/05/12 01:49:26;;;;;;;12.95;6.47;;;;;;;19.51;57.67;99540.83;3411685;84;98886;-83
2022/05/12 01:54:29;;;;;;;12.93;7.03;;;;;;;19.44;57.75;99537.69;3406330;85;98816;-82
2022/05/12 01:59:31;;;;;;;9.50;6.95;;;;;;;19.35;57.94;99537.63;3396145;85;98893;-82
2022/05/12 02:04:32;;;;;;;10.10;5.92;;;;;;;19.28;58.13;99539.30;3402217;86;98675;-83
2022/05/12 02:09:33;;;;;;;14.28;7.28;;;;;;;19.15;58.24;99547.56;3414706;85;35405;-83
2022/05/12 02:14:34;;;;;;;10.20;6.37;;;;;;;19.03;58.53;99542.84;3408040;85;99019;-83
2022/05/12 02:19:35;;;;;;;10.10;7.12;;;;;;;18.98;58.72;99550.40;3414734;84;99080;-82
2022/05/12 02:24:35;;;;;;;11.30;6.65;;;;;;;18.83;58.94;99556.33;3409477;84;98762;-83
2022/05/12 02:29:36;;;;;;;11.30;6.60;;;;;;;18.69;59.05;99550.64;3413529;85;98857;-83
2022/05/12 02:34:37;;;;;;;10.18;7.15;;;;;;;18.58;59.53;99546.69;3406689;85;98921;-83
2022/05/12 02:39:40;;;;;;;10.65;6.75;;;;;;;18.45;60.01;99540.37;3417589;85;29726;-82
2022/05/12 02:44:41;;;;;;;11.08;7.47;;;;;;;18.36;60.13;99543.85;3417783;83;98715;-82
2022/05/12 02:49:42;;;;;;;12.65;7.12;;;;;;;18.27;60.45;99553.50;3412178;83;99385;-83
2022/05/12 02:54:43;;;;;;;10.25;6.47;;;;;;;18.12;60.96;99562.16;3415711;83;99269;-83
2022/05/12 02:59:44;;;;;;;10.72;6.45;;;;;;;17.99;60.93;99555.05;3423054;83;98906;-83
2022/05/12 03:04:46;;;;;;;13.22;7.15;;;;;;;17.89;61.49;99554.19;3411493;84;98921;-83
2022/05/12 03:09:47;;;;;;;11.70;7.08;;;;;;;17.80;61.73;99548.50;3423877;86;32994;-82
2022/05/12 03:14:48;;;;;;;13.30;6.78;;;;;;;17.75;62.15;99543.49;3418317;84;99032;-83
2022/05/12 03:19:49;;;;;;;16.12;8.20;;;;;;;17.72;62.22;99543.61;3420488;83;98551;-83
2022/05/12 03:24:50;;;;;;;13.25;6.65;;;;;;;17.68;62.65;99544.33;3394207;83;98810;-82
2022/05/12 03:29:50;;;;;;;13.45;7.22;;;;;;;17.66;63.19;99547.55;3423043;83;98821;-83
2022/05/12 03:34:51;;;;;;;9.53;6.20;;;;;;;17.59;63.29;99557.52;3417499;83;99170;-83
2022/05/12 03:39:52;;;;;;;12.18;7.03;;;;;;;17.50;63.60;99561.56;3428706;84;31212;-83
2022/05/12 03:44:59;;;;;;;14.63;7.47;;;;;;;17.45;64.08;99571.09;3421092;83;98911;-83
2022/05/12 03:50:03;;;;;;;12.40;7.85;;;;;;;17.43;64.09;99579.87;3423229;83;98686;-82
2022/05/12 03:55:07;;;;;;;13.98;7.17;;;;;;;17.45;64.90;99585.00;3424580;83;99184;-82
2022/05/12 04:00:14;;;;;;;12.73;7.58;;;;;;;17.45;64.80;99582.98;3422353;83;99303;-82
2022/05/12 04:05:15;;;;;;;17.92;7.17;;;;;;;17.45;64.91;99584.37;3421169;84;99293;-83
2022/05/12 04:10:17;;;;;;;14.05;7.50;;;;;;;17.47;65.46;99586.71;3418579;84;99279;-83
2022/05/12 04:15:21;;;;;;;11.18;6.85;;;;;;;17.48;65.68;99600.19;3392700;84;98339;-83
2022/05/12 04:20:22;;;;;;;13.38;7.85;;;;;;;17.48;65.76;99624.43;3426246;83;99150;-83
2022/05/12 04:25:23;;;;;;;12.00;7.87;;;;;;;17.51;66.17;99648.00;3425959;82;99286;-82
2022/05/12 04:30:26;;;;;;;13.45;7.15;;;;;;;17.57;66.49;99657.95;3425651;84;99227;-82
2022/05/12 04:35:27;;;;;;;10.20;6.90;;;;;;;17.66;66.62;99671.38;3426050;83;99297;-86
2022/05/12 04:40:31;;;;;;;11.48;6.83;;;;;;;17.75;66.87;99677.68;3416082;84;99176;-83
2022/05/12 04:45:34;;;;;;;12.80;8.23;;;;;;;17.81;66.58;99682.86;3423541;83;98170;-82
2022/05/12 04:50:42;;;;;;;11.85;6.55;;;;;;;17.91;67.07;99702.64;3424054;83;98816;-83
2022/05/12 04:55:41;;;;;;;10.15;6.53;;;;;;;17.98;66.91;99716.38;3394553;84;98783;-82
2022/05/12 05:00:43;;;;;;;14.05;5.37;;;;;;;18.04;67.23;99728.52;3389557;85;99202;-82
2022/05/12 05:05:45;;;;;;;9.93;4.30;;;;;;;18.13;67.48;99740.55;3422427;85;99060;-83
2022/05/12 05:10:47;;;;;;;11.70;3.72;;;;;;;18.26;67.38;99742.73;3404614;83;99033;-82
2022/05/12 05:15:50;;;;;;;18.32;4.05;;;;;;;18.42;66.99;99762.78;3364419;86;33059;-83
2022/05/12 05:20:51;;;;;;;15.03;3.25;;;;;;;18.48;66.41;99780.50;3376334;85;99079;-82
2022/05/12 05:25:52;;;;;;;13.38;2.77;;;;;;;18.47;65.71;99799.84;3372018;85;98791;-84
2022/05/12 05:30:54;;;;;;;14.15;3.02;;;;;;;18.46;65.65;99796.87;3384844;85;98943;-82
2022/05/12 05:35:57;;;;;;;10.90;2.42;;;;;;;18.39;64.91;99809.03;3378491;86;98881;-82
2022/05/12 05:40:57;;;;;;;4.97;2.00;;;;;;;18.30;64.65;99813.65;3377208;85;98939;-82
2022/05/12 05:45:58;;;;;;;6.00;1.37;;;;;;;18.25;64.48;99812.83;3340147;87;32499;-81
2022/05/12 05:56:20;;;;;;;10.72;1.55;;;;;;;18.12;63.33;99805.84;3386787;86;99222;-83
2022/05/12 06:01:21;;;;;;;7.00;1.30;;;;;;;17.90;62.05;99819.41;3385792;84;98830;-85
2022/05/12 06:06:22;;;;;;;2.95;1.20;;;;;;;17.63;62.84;99836.46;3403713;85;98775;-83
2022/05/12 06:11:23;;;;;;;7.37;1.30;;;;;;;17.51;63.35;99856.66;3341134;85;98722;-82
2022/05/12 06:16:24;;;;;;;4.90;1.47;;;;;;;17.33;64.16;99868.80;3380629;86;98655;-83
2022/05/12 06:21:25;;;;;;;4.60;1.30;;;;;;;17.24;64.97;99872.83;3322358;87;99122;-82
2022/05/12 06:26:26;;;;;;;4.22;1.20;;;;;;;17.17;65.61;99873.60;3344670;87;98840;-83
2022/05/12 06:31:30;;;;;;;4.95;1.60;;;;;;;17.14;66.26;99873.06;3395988;83;98786;-83
2022/05/12 06:36:31;;;;;;;6.33;1.62;;;;;;;17.25;67.18;99895.23;3345559;86;99076;-82
2022/05/12 06:41:34;;;;;;;9.68;2.00;;;;;;;17.33;67.44;99900.02;3354728;85;99135;-82
2022/05/12 06:46:36;;;;;;;6.03;1.80;;;;;;;17.44;68.06;99910.31;3415918;85;98726;-83
2022/05/12 06:51:39;;;;;;;9.65;2.22;;;;;;;17.63;68.37;99925.52;3407188;84;98700;-84
2022/05/12 06:56:43;;;;;;;9.33;2.55;;;;;;;17.81;68.70;99934.17;3401448;84;98460;-83
2022/05/12 07:01:44;;;;;;;7.62;2.27;;;;;;;17.92;68.49;99955.56;3364725;85;98745;-82
2022/05/12 07:06:46;;;;;;;15.78;2.52;;;;;;;18.07;68.18;99964.32;3404512;86;98711;-84
2022/05/12 07:11:47;;;;;;;6.25;1.98;;;;;;;18.12;67.91;99984.67;3384428;85;99226;-84
2022/05/12 07:16:48;;;;;;;6.65;2.17;;;;;;;18.11;67.85;99972.77;3394021;85;99110;-82
2022/05/12 07:27:09;;;;;;;7.17;2.08;;;;;;;18.39;67.54;99991.53;3395121;86;98454;-81
2022/05/12 07:32:10;;;;;;;5.60;1.95;;;;;;;18.57;66.90;100017.48;3397889;85;98999;-84
2022/05/12 07:37:11;;;;;;;9.53;2.40;;;;;;;18.67;66.15;100003.27;3394659;85;98799;-84
2022/05/12 07:42:12;;;;;;;6.10;2.27;;;;;;;18.69;65.53;100005.63;3388013;85;98941;-83
2022/05/12 07:47:13;;;;;;;12.50;4.08;;;;;;;18.92;65.25;100013.70;3342654;85;98879;-81
2022/05/12 07:52:15;;;;;;;11.18;2.45;;;;;;;19.07;64.52;100033.75;3395422;84;99078;-85
2022/05/12 07:57:16;;;;;;;7.83;2.08;;;;;;;19.20;62.61;100063.08;3400495;85;32766;-82
2022/05/12 08:02:18;;;;;;;19.15;2.55;;;;;;;19.05;61.59;100047.98;3411639;85;99251;-81
2022/05/12 08:07:19;;;;;;;19.10;2.65;;;;;;;19.26;58.90;100064.12;3358284;86;99396;-82
2022/05/12 08:12:20;;;;;;;17.67;2.55;;;;;;;19.49;57.36;100069.39;3401541;85;99337;-80
2022/05/12 08:17:21;;;;;;;11.03;2.40;;;;;;;19.72;56.69;100092.81;3376603;85;99146;-82
2022/05/12 08:22:22;;;;;;;16.45;3.77;;;;;;;20.04;54.79;100091.95;3397683;84;99009;-85
2022/05/12 08:27:24;;;;;;;10.70;2.42;;;;;;;20.66;51.85;100098.66;3359922;86;32517;-83
2022/05/12 08:32:26;;;;;;;7.45;1.90;;;;;;;21.30;53.49;100109.13;3399354;86;99294;-85
2022/05/12 08:37:27;;;;;;;13.58;2.47;;;;;;;21.60;52.14;100128.75;3353518;86;98908;-82
2022/05/12 08:42:43;;;;;;;17.37;2.50;;;;;;;21.60;48.54;100143.37;3372780;84;99492;-86
2022/05/12 08:47:50;;;;;;;13.35;2.58;;;;;;;21.80;47.59;100134.02;3393199;84;99334;-83
2022/05/12 08:53:05;;;;;;;11.60;2.33;;;;;;;22.22;47.50;100159.72;3389432;84;99473;-85
2022/05/12 08:58:39;;;;;;;12.30;1.85;;;;;;;22.32;47.91;100168.33;3423106;84;27618;-82
2022/05/12 09:04:12;;;;;;;8.45;2.15;;;;;;;22.67;47.49;100186.50;3417587;84;98610;-83
2022/05/12 09:09:44;;;;;;;16.32;2.37;;;;;;;22.90;47.12;100188.75;3186099;91;98779;-83
2022/05/12 09:15:00;;;;;;;9.13;1.65;;;;;;;22.93;46.18;100199.02;3371263;85;99024;-83
2022/05/12 09:20:01;;;;;;;16.05;2.67;;;;;;;23.05;45.69;100198.73;3399839;84;99165;-82
2022/05/12 09:25:03;;;;;;;11.73;2.67;;;;;;;22.89;45.98;100232.06;3386684;85;99369;-83
2022/05/12 09:30:08;;;;;;;11.22;1.60;;;;;;;22.93;46.79;100231.91;3407695;84;99123;-83
2022/05/12 09:35:24;;;;;;;;;;;;;;;23.04;47.14;100247.70;3389244;85;99075;-83
2022/05/12 09:40:35;;;;;;;9.28;1.20;;;;;;;23.44;46.66;100257.56;3407364;85;27704;-82
2022/05/12 09:45:36;;;;;;;8.03;1.57;;;;;;;23.76;44.81;100275.83;3395932;85;98489;-82
2022/05/12 09:50:37;;;;;;;15.28;1.70;;;;;;;23.47;44.61;100287.54;3395819;85;99063;-82
2022/05/12 09:55:43;;;;;;;14.47;2.20;;;;;;;23.29;44.98;100316.23;3374371;85;98938;-82
2022/05/12 10:01:09;;;;;;;5.17;1.30;;;;;;;23.01;45.40;100323.02;3393109;84;99814;-87
2022/05/12 10:12:06;;;;;;;2.02;0.90;;;;;;;21.66;49.55;100339.00;3392766;84;99344;-82
2022/05/12 10:17:28;;;;;;;3.10;1.50;;;;;;;21.30;49.90;100343.65;3395887;85;98882;-84
2022/05/12 10:22:43;;;;;;;6.15;1.47;;;;;;;20.90;50.35;100346.80;3392394;85;98956;-87
2022/05/12 10:28:16;;;;;;;5.05;1.55;;;;;;;20.98;50.54;100339.73;3393997;85;98657;-83
2022/05/12 10:33:34;;;;;;;6.05;1.95;;;;;;;20.83;50.70;100344.20;3379676;85;99201;-90
2022/05/12 10:38:53;;;;;;;6.55;2.27;;;;;;;21.40;51.49;100355.11;3373635;85;98661;-84
2022/05/12 10:44:26;;;;;;;5.30;1.70;;;;;;;22.02;49.14;100349.90;3388553;85;99490;-82
2022/05/12 10:49:48;;;;;;;10.35;2.37;;;;;;;22.52;49.33;100360.07;3392437;85;99110;-83
2022/05/12 10:55:28;;;;;;;7.00;1.40;;;;;;;23.05;47.82;100367.17;3345907;85;99601;-83
2022/05/12 11:01:02;;;;;;;4.40;1.55;;;;;;;23.28;46.39;100373.66;3371262;85;98904;-85
2022/05/12 11:06:06;;;;;;;6.50;1.70;;;;;;;23.64;46.39;100377.30;3389596;85;98774;-82
2022/05/12 11:11:15;;;;;;;6.42;1.50;;;;;;;23.18;45.76;100395.32;3389360;84;99177;-81
2022/05/12 11:16:30;;;;;;;8.25;1.60;;;;;;;22.63;47.04;100418.74;3380620;85;27379;-82
2022/05/12 11:21:45;;;;;;;5.45;1.60;;;;;;;22.36;47.67;100423.36;3393070;85;98862;-81
2022/05/12 11:27:44;;;;;;;10.18;2.05;;;;;;;22.41;47.88;100422.77;3400320;85;98741;-80
2022/05/12 11:33:13;;;;;;;6.67;1.55;;;;;;;22.73;47.83;100422.38;3392811;85;99023;-78
2022/05/12 11:38:43;;;;;;;5.05;1.45;;;;;;;23.22;46.64;100426.06;3397029;86;98752;-82
2022/05/12 11:49:27;;;;;;;1.98;0.75;;;;;;;24.14;45.82;100429.37;3385733;85;99263;-81
2022/05/12 11:54:49;;;;;;;5.15;1.37;;;;;;;24.31;42.27;100425.74;3378233;86;98995;-81
2022/05/12 11:59:57;;;;;;;3.62;0.60;;;;;;;24.64;42.71;100424.48;3394682;85;99375;-81
2022/05/12 12:05:08;;;;;;;2.20;0.55;;;;;;;24.87;41.21;100430.20;3364773;84;98737;-81
2022/05/12 12:10:33;;;;;;;4.25;0.65;;;;;;;25.19;40.06;100423.83;3397428;86;28471;-84
2022/05/12 12:15:39;;;;;;;1.70;0.60;;;;;;;25.36;39.57;100433.47;3393246;86;98670;-83
2022/05/12 12:20:48;;;;;;;3.20;0.77;;;;;;;25.47;38.16;100443.59;3381631;86;98873;-84
2022/05/12 12:26:27;;;;;;;5.00;0.70;;;;;;;25.68;38.38;100444.56;3396100;85;98891;-82
2022/05/12 12:31:37;;;;;;;7.83;1.20;;;;;;;25.93;38.48;100450.52;3374644;85;99227;-82
2022/05/12 12:36:58;;;;;;;2.22;0.60;;;;;;;25.85;37.57;100460.58;3379633;84;98806;-82
2022/05/12 12:42:33;;;;;;;1.10;0.60;;;;;;;25.53;37.78;100458.59;3369925;85;98991;-82
2022/05/12 12:47:55;;;;;;;3.20;0.50;;;;;;;25.56;37.18;100477.34;3397198;85;99338;-82
2022/05/12 12:52:56;;;;;;;4.22;0.62;;;;;;;25.64;37.39;100470.11;3401184;85;98935;-85
2022/05/12 12:57:57;;;;;;;3.20;0.68;;;;;;;25.63;36.15;100468.55;3400032;86;27441;-84
2022/05/12 13:03:09;;;;;;;3.33;0.80;;;;;;;25.09;34.92;100484.88;3403038;84;98853;-82
2022/05/12 13:08:27;;;;;;;5.17;0.93;;;;;;;24.65;36.30;100483.73;3368080;83;99125;-83
2022/05/12 13:13:28;;;;;;;4.60;0.65;;;;;;;24.29;36.03;100487.94;3374890;85;98895;-82
2022/05/12 13:18:44;;;;;;;2.92;0.82;;;;;;;24.15;36.79;100480.91;3379998;83;98891;-82
2022/05/12 13:24:02;;;;;;;4.58;0.78;;;;;;;24.40;36.20;100494.67;3340135;85;99100;-84
2022/05/12 13:29:08;;;;;;;2.47;0.45;;;;;;;24.67;36.26;100498.91;3331788;85;98762;-84
2022/05/12 13:34:19;;;;;;;1.55;0.62;;;;;;;24.78;35.65;100501.22;3353470;86;98758;-81
2022/05/12 13:39:50;;;;;;;2.17;0.72;;;;;;;24.69;34.99;100494.22;3312171;84;97863;-84
2022/05/12 13:44:56;;;;;;;4.42;0.90;;;;;;;24.81;35.00;100502.48;3299451;85;98749;-85
2022/05/12 13:49:58;;;;;;;1.17;0.50;;;;;;;24.56;33.43;100490.74;3306500;87;98873;-81
2022/05/12 13:55:06;;;;;;;1.50;0.65;;;;;;;24.27;33.97;100494.67;3311522;87;98909;-81
2022/05/12 14:00:35;;;;;;;4.33;0.85;;;;;;;24.45;34.24;100493.25;3295209;85;98819;-84
2022/05/12 14:05:36;;;;;;;2.05;0.53;;;;;;;24.23;33.42;100492.62;3302174;87;98683;-82
2022/05/12 14:10:53;;;;;;;2.95;0.78;;;;;;;24.20;34.88;100492.94;3303998;86;98916;-82
2022/05/12 14:21:18;;;;;;;2.65;0.90;;;;;;;24.31;34.88;100493.90;3309889;87;98842;-84
2022/05/12 14:26:19;;;;;;;1.65;0.72;;;;;;;24.36;34.87;100496.85;3312092;85;98725;-83
2022/05/12 14:31:26;;;;;;;2.55;0.57;;;;;;;24.22;34.65;100507.95;3305309;87;99348;-83
2022/05/12 14:36:27;;;;;;;2.35;0.50;;;;;;;23.95;34.36;100502.29;3310991;85;99340;-83
2022/05/12 14:41:28;;;;;;;2.22;0.70;;;;;;;23.85;34.91;100509.11;3303172;85;99136;-83
2022/05/12 14:46:33;;;;;;;1.33;0.60;;;;;;;23.81;34.23;100499.42;3351970;86;32550;-83
2022/05/12 14:51:36;;;;;;;6.37;2.47;;;;;;;23.44;34.22;100489.31;3335444;86;99039;-84
2022/05/12 14:56:37;;;;;;;4.12;1.32;;;;;;;23.18;33.15;100497.02;3386467;85;99204;-86
2022/05/12 15:01:38;;;;;;;1.75;0.90;;;;;;;22.96;33.42;100498.45;3382146;85;98913;-84
2022/05/12 15:06:39;;;;;;;2.60;0.70;;;;;;;22.78;34.18;100494.10;3384014;85;98880;-87
2022/05/12 15:11:40;;;;;;;1.50;0.78;;;;;;;22.65;33.60;100510.84;3389254;84;99180;-83
2022/05/12 15:16:42;;;;;;;3.17;0.60;;;;;;;22.34;34.91;100507.93;3411548;85;32487;-84
2022/05/12 15:21:43;;;;;;;4.60;0.82;;;;;;;22.13;35.62;100505.11;3372259;85;99361;-84
2022/05/12 15:26:45;;;;;;;1.77;0.80;;;;;;;22.05;35.59;100503.16;3402641;85;99030;-83
2022/05/12 15:31:46;;;;;;;4.58;0.90;;;;;;;21.99;35.55;100502.78;3392053;85;98843;-85
2022/05/12 15:36:49;;;;;;;1.17;0.62;;;;;;;21.89;35.26;100507.52;3401645;85;98887;-83
2022/05/12 15:41:53;;;;;;;3.62;1.00;;;;;;;21.73;35.85;100499.25;3395104;83;99155;-84
2022/05/12 15:47:09;;;;;;;2.25;0.95;;;;;;;21.69;35.72;100504.19;3383223;85;27463;-83
2022/05/12 15:52:11;;;;;;;3.10;0.87;;;;;;;21.52;35.92;100501.31;3372229;85;98885;-84
2022/05/12 15:57:12;;;;;;;3.72;0.70;;;;;;;21.29;35.59;100500.27;3382511;85;98936;-83
2022/05/12 16:02:22;;;;;;;4.72;0.72;;;;;;;21.03;36.36;100505.66;3374378;85;98959;-85
2022/05/12 16:07:23;;;;;;;2.60;0.72;;;;;;;20.87;36.54;100504.32;3383386;85;98976;-82
2022/05/12 16:12:36;;;;;;;4.15;1.00;;;;;;;20.77;37.04;100501.84;3405312;84;99086;-83
2022/05/12 16:17:31;;;;;;;2.85;0.90;;;;;;;20.68;37.25;100503.10;3412039;85;98971;-84
2022/05/12 16:22:33;;;;;;;4.20;1.10;;;;;;;20.45;36.89;100512.55;3414109;84;98684;-85
2022/05/12 16:27:35;;;;;;;2.65;1.35;;;;;;;20.25;37.23;100516.09;3415914;84;99133;-82
2022/05/12 16:32:35;;;;;;;2.20;0.72;;;;;;;20.08;36.79;100510.96;3405029;84;99015;-82
2022/05/12 16:37:37;;;;;;;4.03;0.80;;;;;;;19.91;37.43;100511.58;3419800;85;99291;-84
2022/05/12 16:42:38;;;;;;;2.77;0.90;;;;;;;19.79;38.05;100510.87;3412625;84;98973;-84
2022/05/12 16:47:38;;;;;;;2.80;0.82;;;;;;;19.63;38.15;100507.30;3421221;85;99212;-84
2022/05/12 16:52:41;;;;;;;2.15;1.00;;;;;;;19.51;37.86;100511.56;3396953;85;98895;-84
2022/05/12 16:57:43;;;;;;;3.22;1.27;;;;;;;19.38;38.51;100500.12;3413594;84;98743;-84
2022/05/12 17:02:43;;;;;;;3.65;1.02;;;;;;;19.27;38.80;100507.96;3288787;88;99058;-83
2022/05/12 17:07:45;;;;;;;2.70;0.90;;;;;;;19.11;38.97;100505.11;3354353;86;99182;-83
2022/05/12 17:12:46;;;;;;;5.25;1.00;;;;;;;19.01;39.37;100503.36;3374437;84;98798;-84
2022/05/12 17:17:47;;;;;;;3.45;1.00;;;;;;;18.88;39.59;100496.86;3392035;85;99328;-85
2022/05/12 17:22:49;;;;;;;1.67;1.00;;;;;;;18.80;40.27;100499.63;3377131;85;98866;-84
2022/05/12 17:27:50;;;;;;;2.30;0.80;;;;;;;18.68;41.25;100509.42;3385333;85;98731;-84
2022/05/12 17:32:51;;;;;;;4.28;1.47;;;;;;;18.55;41.14;100502.13;3368956;85;98764;-84
2022/05/12 17:37:51;;;;;;;2.33;1.10;;;;;;;18.43;41.65;100507.73;3387367;85;98867;-84
2022/05/12 17:42:52;;;;;;;3.62;1.25;;;;;;;18.31;42.34;100498.58;3378296;85;98944;-84
2022/05/12 17:47:54;;;;;;;5.00;1.40;;;;;;;18.22;43.06;100505.34;3374710;85;98999;-84
2022/05/12 17:52:55;;;;;;;5.35;1.50;;;;;;;18.11;43.58;100503.95;3372226;86;99103;-81
2022/05/12 17:57:56;;;;;;;2.30;0.90;;;;;;;17.95;43.81;100507.43;3385531;85;99193;-83
2022/05/12 18:02:57;;;;;;;3.25;1.00;;;;;;;17.82;43.64;100516.81;3353917;85;99063;-83
2022/05/12 18:07:58;;;;;;;5.75;1.32;;;;;;;17.71;44.54;100514.81;3386844;84;99240;-83
2022/05/12 18:13:01;;;;;;;8.08;2.35;;;;;;;17.64;44.69;100517.69;3401703;84;98844;-84
2022/05/12 18:18:02;;;;;;;7.70;1.98;;;;;;;17.48;44.70;100510.59;3398204;84;99170;-84
2022/05/12 18:23:05;;;;;;;4.05;1.35;;;;;;;17.36;45.16;100522.28;3396205;86;98756;-83
2022/05/12 18:28:10;;;;;;;33.92;18.30;;;;;;;17.20;45.60;100523.50;3395626;83;98581;-83
2022/05/12 18:33:13;;;;;;;11.70;6.30;;;;;;;17.00;45.98;100526.16;3397766;84;99420;-83
2022/05/12 18:38:21;;;;;;;7.33;4.08;;;;;;;16.84;46.29;100525.98;3389001;84;99430;-83
2022/05/12 18:43:23;;;;;;;8.00;3.67;;;;;;;16.68;46.67;100534.73;3400239;84;99634;-83
2022/05/12 18:48:24;;;;;;;6.15;2.77;;;;;;;16.55;46.81;100541.43;3399006;84;98800;-84
2022/05/12 18:53:25;;;;;;;7.40;2.75;;;;;;;16.37;46.97;100546.38;3353997;86;98817;-84
2022/05/12 18:58:26;;;;;;;8.28;2.95;;;;;;;16.24;47.04;100554.24;3375145;85;29688;-84
2022/05/12 19:03:28;;;;;;;9.35;3.33;;;;;;;16.08;47.23;100558.94;3370102;85;98729;-82
2022/05/12 19:08:29;;;;;;;6.75;2.45;;;;;;;15.91;47.67;100559.88;3347649;85;98852;-81
2022/05/12 19:13:33;;;;;;;5.65;2.55;;;;;;;15.67;48.14;100565.63;3391071;85;98953;-82
2022/05/12 19:18:34;;;;;;;8.20;3.08;;;;;;;15.47;48.72;100563.98;3400068;84;99220;-82
2022/05/12 19:23:36;;;;;;;12.13;4.62;;;;;;;15.32;49.12;100567.23;3345250;83;98876;-81
2022/05/12 19:28:37;;;;;;;8.35;2.92;;;;;;;15.18;49.48;100568.69;3385526;85;33091;-81
2022/05/12 19:33:39;;;;;;;5.03;2.10;;;;;;;15.00;49.96;100567.38;3342457;86;98741;-81
2022/05/12 19:38:41;;;;;;;4.53;2.17;;;;;;;14.79;50.58;100570.85;3421334;83;98618;-81
2022/05/12 19:43:42;;;;;;;6.67;1.70;;;;;;;14.58;51.21;100567.56;3392830;85;99035;-81
2022/05/12 19:48:43;;;;;;;7.92;1.77;;;;;;;14.42;51.84;100574.14;3410681;83;98834;-82
2022/05/12 19:53:44;;;;;;;3.30;1.33;;;;;;;14.30;52.21;100564.88;3406404;84;99267;-81
2022/05/12 19:58:45;;;;;;;5.62;1.80;;;;;;;14.15;52.54;100572.96;3343906;87;28772;-82
2022/05/12 20:03:46;;;;;;;4.07;2.00;;;;;;;14.03;53.25;100573.95;3376681;83;98975;-81
2022/05/12 20:08:48;;;;;;;7.50;2.00;;;;;;;13.92;53.71;100576.73;3381650;84;98735;-82
2022/05/12 20:13:49;;;;;;;3.90;1.60;;;;;;;13.82;54.18;100576.72;3372770;85;98920;-82
2022/05/12 20:18:49;;;;;;;6.83;1.98;;;;;;;13.67;54.57;100570.97;3385983;85;98871;-83
2022/05/12 20:23:51;;;;;;;6.12;2.10;;;;;;;13.53;54.99;100569.59;3373798;85;99157;-82
2022/05/12 20:28:53;;;;;;;3.87;1.70;;;;;;;13.45;55.50;100571.55;3352456;86;26472;-81
2022/05/12 20:33:54;;;;;;;5.95;2.20;;;;;;;13.38;55.81;100570.75;3393863;84;98675;-82
2022/05/12 20:38:56;;;;;;;14.03;2.60;;;;;;;13.28;56.07;100582.56;3397483;84;98904;-82
2022/05/12 20:43:57;;;;;;;8.97;2.30;;;;;;;13.13;56.41;100587.27;3408989;84;99297;-82
2022/05/12 20:49:03;;;;;;;9.37;3.37;;;;;;;13.02;56.93;100591.19;3392505;85;99245;-82
2022/05/12 20:54:03;;;;;;;9.43;3.15;;;;;;;12.89;57.49;100592.09;3386461;84;98885;-82
2022/05/12 20:59:06;;;;;;;8.53;3.20;;;;;;;12.80;57.73;100591.64;3400319;84;33121;-80
2022/05/12 21:04:07;;;;;;;7.60;2.90;;;;;;;12.72;58.06;100592.00;3410011;84;98953;-81
2022/05/12 21:09:09;;;;;;;10.37;3.13;;;;;;;12.60;58.51;100587.59;3379482;85;99282;-81
2022/05/12 21:14:10;;;;;;;12.05;3.98;;;;;;;12.51;58.81;100589.92;3416231;84;99346;-82
2022/05/12 21:19:14;;;;;;;7.80;3.10;;;;;;;12.44;58.82;100598.75;3400516;84;98972;-80
2022/05/12 21:24:15;;;;;;;8.98;3.30;;;;;;;12.34;59.51;100597.52;3414543;85;99291;-81
2022/05/12 21:29:16;;;;;;;9.15;3.17;;;;;;;12.24;59.92;100590.52;3413299;84;99350;-82
2022/05/12 21:34:17;;;;;;;6.40;2.77;;;;;;;12.11;60.38;100590.03;3409853;85;98413;-82
2022/05/12 21:39:19;;;;;;;7.03;3.10;;;;;;;12.01;60.84;100587.20;3422832;85;99259;-82
2022/05/12 21:44:20;;;;;;;7.77;2.80;;;;;;;11.93;61.03;100586.96;3404146;84;98803;-82
2022/05/12 21:49:21;;;;;;;7.60;2.90;;;;;;;11.86;61.08;100589.06;3428688;85;98895;-81
2022/05/12 21:54:22;;;;;;;7.27;2.70;;;;;;;11.78;61.43;100583.27;3421849;85;98843;-82
2022/05/12 22:04:42;;;;;;;6.60;2.67;;;;;;;11.64;61.88;100582.36;3369876;84;98389;-81
2022/05/12 22:09:43;;;;;;;7.73;3.00;;;;;;;11.59;62.32;100584.08;3408702;85;99003;-81
2022/05/12 22:14:51;;;;;;;7.90;3.43;;;;;;;11.51;62.67;100583.78;3399118;84;98702;-81
2022/05/12 22:19:52;;;;;;;11.35;3.83;;;;;;;11.45;62.91;100589.44;3405854;85;99288;-81
2022/05/12 22:24:53;;;;;;;7.67;2.93;;;;;;;11.40;62.66;100596.06;3404783;85;98925;-82
2022/05/12 22:29:54;;;;;;;8.37;3.70;;;;;;;11.38;62.64;100592.10;3411926;84;99200;-82
2022/05/12 22:34:55;;;;;;;6.77;2.73;;;;;;;11.35;62.97;100596.41;3409637;84;98708;-82
2022/05/12 22:39:56;;;;;;;7.07;3.17;;;;;;;11.32;63.17;100597.75;3421975;84;99066;-82
2022/05/12 22:44:57;;;;;;;10.87;2.97;;;;;;;11.30;63.64;100596.77;3409406;84;98912;-81
2022/05/12 22:50:00;;;;;;;6.27;2.73;;;;;;;11.26;63.66;100595.94;3400074;85;99128;-82
2022/05/12 22:55:02;;;;;;;9.08;2.87;;;;;;;11.25;63.74;100596.30;3380768;85;98774;-82
2022/05/12 23:00:06;;;;;;;6.55;3.02;;;;;;;11.24;64.32;100600.23;3384111;86;98652;-78
2022/05/12 23:05:07;;;;;;;6.03;2.40;;;;;;;11.21;64.63;100599.02;3395989;85;98992;-82
2022/05/12 23:10:09;;;;;;;6.10;2.67;;;;;;;11.19;64.39;100601.95;3397132;86;98490;-81
2022/05/12 23:15:11;;;;;;;5.55;2.65;;;;;;;11.20;64.18;100600.20;3394064;85;99030;-81
2022/05/12 23:25:32;;;;;;;9.15;3.12;;;;;;;11.19;64.67;100605.51;3392175;85;98851;-82
2022/05/12 23:30:33;;;;;;;7.20;2.80;;;;;;;11.18;65.79;100599.77;3390784;85;98852;-82
2022/05/12 23:35:34;;;;;;;5.17;2.50;;;;;;;11.15;65.90;100590.89;3386835;86;99123;-82
2022/05/12 23:40:35;;;;;;;6.63;2.77;;;;;;;11.16;66.34;100597.17;3393812;85;98829;-82
2022/05/12 23:45:36;;;;;;;7.77;3.43;;;;;;;11.17;66.38;100589.14;3380472;85;98625;-82
2022/05/12 23:50:38;;;;;;;8.73;3.60;;;;;;;11.17;65.78;100596.80;3384471;86;108526;-81
2022/05/12 23:55:39;;;;;;;9.13;3.30;;;;;;;11.18;66.10;100589.34;3417851;84;98991;-82
